sensor_id;sensor_type;location;lat;lon;timestamp;P1;durP1;ratioP1;P2;durP2;ratioP2
78489;SDS011;67776;52.012;4.736;2023-02-28T00:00:27;5.60;;;2.10;;
78489;SDS011;67776;52.012;4.736;2023-02-28T00:02:52;6.70;;;2.10;;
78489;SDS011;67776;52.012;4.736;2023-02-28T00:05:19;7.77;;;2.63;;
78489;SDS011;67776;52.012;4.736;2023-02-28T00:07:45;8.95;;;2.40;;
78489;SDS011;67776;52.012;4.736;2023-02-28T00:10:13;7.40;;;2.53;;
78489;SDS011;67776;52.012;4.736;2023-02-28T00:12:40;8.13;;;2.30;;
78489;SDS011;67776;52.012;4.736;2023-02-28T00:15:06;6.43;;;2.27;;
78489;SDS011;67776;52.012;4.736;2023-02-28T00:17:33;7.93;;;2.20;;
78489;SDS011;67776;52.012;4.736;2023-02-28T00:19:58;8.55;;;2.22;;
78489;SDS011;67776;52.012;4.736;2023-02-28T00:22:26;5.90;;;2.23;;
78489;SDS011;67776;52.012;4.736;2023-02-28T00:24:52;6.50;;;2.08;;
78489;SDS011;67776;52.012;4.736;2023-02-28T00:27:17;6.90;;;2.03;;
78489;SDS011;67776;52.012;4.736;2023-02-28T00:29:43;6.47;;;2.10;;
78489;SDS011;67776;52.012;4.736;2023-02-28T00:32:08;9.43;;;2.10;;
78489;SDS011;67776;52.012;4.736;2023-02-28T00:34:33;7.67;;;2.43;;
78489;SDS011;67776;52.012;4.736;2023-02-28T00:37:02;8.18;;;2.25;;
78489;SDS011;67776;52.012;4.736;2023-02-28T00:39:33;8.75;;;2.20;;
78489;SDS011;67776;52.012;4.736;2023-02-28T00:41:59;8.60;;;2.00;;
78489;SDS011;67776;52.012;4.736;2023-02-28T00:44:24;8.30;;;2.20;;
78489;SDS011;67776;52.012;4.736;2023-02-28T00:46:49;6.53;;;2.20;;
78489;SDS011;67776;52.012;4.736;2023-02-28T00:49:15;7.23;;;2.13;;
78489;SDS011;67776;52.012;4.736;2023-02-28T00:51:40;7.17;;;1.97;;
78489;SDS011;67776;52.012;4.736;2023-02-28T00:54:05;5.53;;;2.17;;
78489;SDS011;67776;52.012;4.736;2023-02-28T00:56:31;9.03;;;2.10;;
78489;SDS011;67776;52.012;4.736;2023-02-28T00:58:56;7.27;;;2.30;;
78489;SDS011;67776;52.012;4.736;2023-02-28T01:01:21;6.40;;;2.20;;
78489;SDS011;67776;52.012;4.736;2023-02-28T01:03:47;6.00;;;2.07;;
78489;SDS011;67776;52.012;4.736;2023-02-28T01:06:12;6.43;;;2.20;;
78489;SDS011;67776;52.012;4.736;2023-02-28T01:08:37;7.30;;;2.20;;
78489;SDS011;67776;52.012;4.736;2023-02-28T01:11:12;5.40;;;2.05;;
78489;SDS011;67776;52.012;4.736;2023-02-28T01:13:40;6.73;;;2.13;;
78489;SDS011;67776;52.012;4.736;2023-02-28T01:16:06;5.82;;;2.10;;
78489;SDS011;67776;52.012;4.736;2023-02-28T01:18:31;5.28;;;2.05;;
78489;SDS011;67776;52.012;4.736;2023-02-28T01:20:57;6.17;;;2.10;;
78489;SDS011;67776;52.012;4.736;2023-02-28T01:23:22;5.57;;;1.90;;
78489;SDS011;67776;52.012;4.736;2023-02-28T01:25:49;5.55;;;1.95;;
78489;SDS011;67776;52.012;4.736;2023-02-28T01:28:15;6.40;;;2.70;;
78489;SDS011;67776;52.012;4.736;2023-02-28T01:30:40;6.30;;;2.00;;
78489;SDS011;67776;52.012;4.736;2023-02-28T01:33:05;7.10;;;2.13;;
78489;SDS011;67776;52.012;4.736;2023-02-28T01:35:34;5.27;;;2.13;;
78489;SDS011;67776;52.012;4.736;2023-02-28T01:38:00;8.32;;;2.42;;
78489;SDS011;67776;52.012;4.736;2023-02-28T01:40:27;7.15;;;2.38;;
78489;SDS011;67776;52.012;4.736;2023-02-28T01:42:52;7.73;;;2.37;;
78489;SDS011;67776;52.012;4.736;2023-02-28T01:47:43;7.20;;;2.30;;
78489;SDS011;67776;52.012;4.736;2023-02-28T01:50:16;7.68;;;2.30;;
78489;SDS011;67776;52.012;4.736;2023-02-28T01:52:45;5.28;;;1.95;;
78489;SDS011;67776;52.012;4.736;2023-02-28T01:55:12;7.13;;;2.07;;
78489;SDS011;67776;52.012;4.736;2023-02-28T01:57:39;6.70;;;2.35;;
78489;SDS011;67776;52.012;4.736;2023-02-28T02:00:13;8.85;;;2.47;;
78489;SDS011;67776;52.012;4.736;2023-02-28T02:02:41;7.18;;;2.30;;
78489;SDS011;67776;52.012;4.736;2023-02-28T02:05:10;7.43;;;2.30;;
78489;SDS011;67776;52.012;4.736;2023-02-28T02:07:39;7.33;;;2.40;;
78489;SDS011;67776;52.012;4.736;2023-02-28T02:10:24;7.40;;;2.50;;
78489;SDS011;67776;52.012;4.736;2023-02-28T02:27:08;7.32;;;2.38;;
78489;SDS011;67776;52.012;4.736;2023-02-28T02:41:08;6.55;;;2.42;;
78489;SDS011;67776;52.012;4.736;2023-02-28T02:43:49;6.50;;;2.50;;
78489;SDS011;67776;52.012;4.736;2023-02-28T02:46:23;8.10;;;2.53;;
78489;SDS011;67776;52.012;4.736;2023-02-28T02:48:50;6.53;;;2.33;;
78489;SDS011;67776;52.012;4.736;2023-02-28T02:51:18;6.30;;;2.58;;
78489;SDS011;67776;52.012;4.736;2023-02-28T02:53:48;7.85;;;2.55;;
78489;SDS011;67776;52.012;4.736;2023-02-28T02:56:19;6.32;;;2.63;;
78489;SDS011;67776;52.012;4.736;2023-02-28T02:58:48;8.13;;;2.63;;
78489;SDS011;67776;52.012;4.736;2023-02-28T03:01:17;6.80;;;2.67;;
78489;SDS011;67776;52.012;4.736;2023-02-28T03:03:53;8.27;;;3.00;;
78489;SDS011;67776;52.012;4.736;2023-02-28T03:06:20;6.90;;;2.50;;
78489;SDS011;67776;52.012;4.736;2023-02-28T03:08:46;8.70;;;2.67;;
78489;SDS011;67776;52.012;4.736;2023-02-28T03:11:12;5.97;;;2.30;;
78489;SDS011;67776;52.012;4.736;2023-02-28T03:30:45;6.13;;;2.30;;
78489;SDS011;67776;52.012;4.736;2023-02-28T03:33:14;7.10;;;2.78;;
78489;SDS011;67776;52.012;4.736;2023-02-28T03:35:48;9.20;;;2.80;;
78489;SDS011;67776;52.012;4.736;2023-02-28T03:38:35;7.67;;;2.93;;
78489;SDS011;67776;52.012;4.736;2023-02-28T03:41:27;7.70;;;2.67;;
78489;SDS011;67776;52.012;4.736;2023-02-28T03:43:56;6.93;;;3.03;;
78489;SDS011;67776;52.012;4.736;2023-02-28T03:46:28;8.25;;;3.15;;
78489;SDS011;67776;52.012;4.736;2023-02-28T03:49:07;7.93;;;2.80;;
78489;SDS011;67776;52.012;4.736;2023-02-28T03:51:40;9.03;;;3.57;;
78489;SDS011;67776;52.012;4.736;2023-02-28T03:54:09;8.88;;;3.20;;
78489;SDS011;67776;52.012;4.736;2023-02-28T03:56:39;7.50;;;2.85;;
78489;SDS011;67776;52.012;4.736;2023-02-28T03:59:18;9.30;;;3.30;;
78489;SDS011;67776;52.012;4.736;2023-02-28T04:01:50;9.40;;;3.33;;
78489;SDS011;67776;52.012;4.736;2023-02-28T04:04:16;9.27;;;3.50;;
78489;SDS011;67776;52.012;4.736;2023-02-28T04:06:42;9.15;;;4.13;;
78489;SDS011;67776;52.012;4.736;2023-02-28T04:09:10;8.00;;;3.40;;
78489;SDS011;67776;52.012;4.736;2023-02-28T04:11:50;8.77;;;3.75;;
78489;SDS011;67776;52.012;4.736;2023-02-28T04:14:17;9.33;;;3.80;;
78489;SDS011;67776;52.012;4.736;2023-02-28T04:16:42;9.98;;;3.80;;
78489;SDS011;67776;52.012;4.736;2023-02-28T04:19:09;8.55;;;3.50;;
78489;SDS011;67776;52.012;4.736;2023-02-28T04:21:36;9.00;;;3.58;;
78489;SDS011;67776;52.012;4.736;2023-02-28T04:24:06;7.20;;;3.37;;
78489;SDS011;67776;52.012;4.736;2023-02-28T04:26:38;7.05;;;3.40;;
78489;SDS011;67776;52.012;4.736;2023-02-28T04:29:06;7.18;;;3.30;;
78489;SDS011;67776;52.012;4.736;2023-02-28T04:31:32;7.43;;;3.43;;
78489;SDS011;67776;52.012;4.736;2023-02-28T04:33:58;7.60;;;3.63;;
78489;SDS011;67776;52.012;4.736;2023-02-28T04:36:24;10.75;;;3.42;;
78489;SDS011;67776;52.012;4.736;2023-02-28T04:38:50;9.80;;;3.80;;
78489;SDS011;67776;52.012;4.736;2023-02-28T04:41:15;8.47;;;3.70;;
78489;SDS011;67776;52.012;4.736;2023-02-28T04:43:41;8.57;;;4.40;;
78489;SDS011;67776;52.012;4.736;2023-02-28T04:46:06;9.30;;;4.17;;
78489;SDS011;67776;52.012;4.736;2023-02-28T04:48:33;11.33;;;4.63;;
78489;SDS011;67776;52.012;4.736;2023-02-28T04:51:00;9.70;;;4.75;;
78489;SDS011;67776;52.012;4.736;2023-02-28T04:53:27;10.43;;;4.60;;
78489;SDS011;67776;52.012;4.736;2023-02-28T04:55:54;11.17;;;4.80;;
78489;SDS011;67776;52.012;4.736;2023-02-28T04:58:19;11.27;;;4.40;;
78489;SDS011;67776;52.012;4.736;2023-02-28T05:00:48;9.27;;;4.45;;
78489;SDS011;67776;52.012;4.736;2023-02-28T05:03:13;8.97;;;4.17;;
78489;SDS011;67776;52.012;4.736;2023-02-28T05:05:39;10.20;;;4.90;;
78489;SDS011;67776;52.012;4.736;2023-02-28T05:08:04;10.30;;;4.53;;
78489;SDS011;67776;52.012;4.736;2023-02-28T05:10:30;10.93;;;4.63;;
78489;SDS011;67776;52.012;4.736;2023-02-28T05:12:55;11.27;;;4.95;;
78489;SDS011;67776;52.012;4.736;2023-02-28T05:15:21;11.97;;;4.90;;
78489;SDS011;67776;52.012;4.736;2023-02-28T05:17:46;12.43;;;4.73;;
78489;SDS011;67776;52.012;4.736;2023-02-28T05:20:11;11.93;;;5.27;;
78489;SDS011;67776;52.012;4.736;2023-02-28T05:22:38;9.80;;;4.53;;
78489;SDS011;67776;52.012;4.736;2023-02-28T05:25:04;10.43;;;5.25;;
78489;SDS011;67776;52.012;4.736;2023-02-28T05:27:30;13.30;;;5.17;;
78489;SDS011;67776;52.012;4.736;2023-02-28T05:29:56;11.98;;;5.13;;
78489;SDS011;67776;52.012;4.736;2023-02-28T05:32:21;10.53;;;4.90;;
78489;SDS011;67776;52.012;4.736;2023-02-28T05:34:46;12.67;;;5.57;;
78489;SDS011;67776;52.012;4.736;2023-02-28T05:37:12;12.07;;;5.60;;
78489;SDS011;67776;52.012;4.736;2023-02-28T05:39:38;10.75;;;5.03;;
78489;SDS011;67776;52.012;4.736;2023-02-28T05:42:04;12.10;;;5.87;;
78489;SDS011;67776;52.012;4.736;2023-02-28T05:44:30;12.35;;;5.47;;
78489;SDS011;67776;52.012;4.736;2023-02-28T05:46:55;11.23;;;5.68;;
78489;SDS011;67776;52.012;4.736;2023-02-28T05:49:21;10.50;;;5.70;;
78489;SDS011;67776;52.012;4.736;2023-02-28T05:51:46;12.73;;;5.73;;
78489;SDS011;67776;52.012;4.736;2023-02-28T05:54:12;9.63;;;5.10;;
78489;SDS011;67776;52.012;4.736;2023-02-28T05:56:37;9.25;;;4.72;;
78489;SDS011;67776;52.012;4.736;2023-02-28T05:59:04;9.80;;;4.35;;
78489;SDS011;67776;52.012;4.736;2023-02-28T06:03:58;8.32;;;3.67;;
78489;SDS011;67776;52.012;4.736;2023-02-28T06:06:24;7.40;;;4.00;;
78489;SDS011;67776;52.012;4.736;2023-02-28T06:08:50;8.27;;;3.47;;
78489;SDS011;67776;52.012;4.736;2023-02-28T06:11:15;7.30;;;3.30;;
78489;SDS011;67776;52.012;4.736;2023-02-28T06:13:40;8.50;;;3.33;;
78489;SDS011;67776;52.012;4.736;2023-02-28T06:16:07;8.57;;;3.15;;
78489;SDS011;67776;52.012;4.736;2023-02-28T06:18:34;11.37;;;3.63;;
78489;SDS011;67776;52.012;4.736;2023-02-28T06:20:59;7.77;;;3.40;;
78489;SDS011;67776;52.012;4.736;2023-02-28T06:23:24;8.67;;;3.30;;
78489;SDS011;67776;52.012;4.736;2023-02-28T06:25:50;9.93;;;3.70;;
78489;SDS011;67776;52.012;4.736;2023-02-28T06:28:15;9.60;;;3.67;;
78489;SDS011;67776;52.012;4.736;2023-02-28T06:30:41;7.38;;;3.63;;
78489;SDS011;67776;52.012;4.736;2023-02-28T06:33:06;7.53;;;3.43;;
78489;SDS011;67776;52.012;4.736;2023-02-28T06:35:31;9.83;;;4.17;;
78489;SDS011;67776;52.012;4.736;2023-02-28T06:37:57;9.10;;;3.97;;
78489;SDS011;67776;52.012;4.736;2023-02-28T06:40:22;8.63;;;3.93;;
78489;SDS011;67776;52.012;4.736;2023-02-28T06:42:48;10.45;;;3.55;;
78489;SDS011;67776;52.012;4.736;2023-02-28T06:45:13;7.50;;;3.50;;
78489;SDS011;67776;52.012;4.736;2023-02-28T06:47:39;10.73;;;4.37;;
78489;SDS011;67776;52.012;4.736;2023-02-28T06:50:06;9.25;;;4.40;;
78489;SDS011;67776;52.012;4.736;2023-02-28T06:52:32;11.18;;;4.07;;
78489;SDS011;67776;52.012;4.736;2023-02-28T06:55:01;9.55;;;5.15;;
78489;SDS011;67776;52.012;4.736;2023-02-28T06:57:27;11.53;;;5.00;;
78489;SDS011;67776;52.012;4.736;2023-02-28T06:59:59;12.45;;;5.35;;
78489;SDS011;67776;52.012;4.736;2023-02-28T07:02:26;11.43;;;4.88;;
78489;SDS011;67776;52.012;4.736;2023-02-28T07:04:51;11.90;;;5.63;;
78489;SDS011;67776;52.012;4.736;2023-02-28T07:07:17;11.47;;;5.10;;
78489;SDS011;67776;52.012;4.736;2023-02-28T07:09:42;10.80;;;5.33;;
78489;SDS011;67776;52.012;4.736;2023-02-28T07:12:07;12.20;;;6.60;;
78489;SDS011;67776;52.012;4.736;2023-02-28T07:14:33;12.00;;;5.37;;
78489;SDS011;67776;52.012;4.736;2023-02-28T07:16:58;11.23;;;5.70;;
78489;SDS011;67776;52.012;4.736;2023-02-28T07:19:23;11.13;;;5.77;;
78489;SDS011;67776;52.012;4.736;2023-02-28T07:21:49;11.40;;;5.80;;
78489;SDS011;67776;52.012;4.736;2023-02-28T07:24:14;13.07;;;6.00;;
78489;SDS011;67776;52.012;4.736;2023-02-28T07:26:41;10.43;;;5.13;;
78489;SDS011;67776;52.012;4.736;2023-02-28T07:29:09;9.10;;;4.57;;
78489;SDS011;67776;52.012;4.736;2023-02-28T07:31:34;10.50;;;4.97;;
78489;SDS011;67776;52.012;4.736;2023-02-28T07:34:00;10.67;;;5.23;;
78489;SDS011;67776;52.012;4.736;2023-02-28T07:36:25;10.67;;;5.27;;
78489;SDS011;67776;52.012;4.736;2023-02-28T07:38:50;9.53;;;4.73;;
78489;SDS011;67776;52.012;4.736;2023-02-28T07:41:16;11.67;;;4.90;;
78489;SDS011;67776;52.012;4.736;2023-02-28T07:43:43;13.45;;;5.47;;
78489;SDS011;67776;52.012;4.736;2023-02-28T07:46:10;10.95;;;5.30;;
78489;SDS011;67776;52.012;4.736;2023-02-28T07:48:37;9.50;;;4.43;;
78489;SDS011;67776;52.012;4.736;2023-02-28T07:51:03;9.97;;;5.20;;
78489;SDS011;67776;52.012;4.736;2023-02-28T07:53:28;11.13;;;5.27;;
78489;SDS011;67776;52.012;4.736;2023-02-28T07:55:55;19.33;;;8.73;;
78489;SDS011;67776;52.012;4.736;2023-02-28T07:58:22;12.95;;;6.07;;
78489;SDS011;67776;52.012;4.736;2023-02-28T08:00:47;12.20;;;5.53;;
78489;SDS011;67776;52.012;4.736;2023-02-28T08:03:13;13.73;;;5.07;;
78489;SDS011;67776;52.012;4.736;2023-02-28T08:05:39;15.10;;;6.10;;
78489;SDS011;67776;52.012;4.736;2023-02-28T08:08:05;11.57;;;6.50;;
78489;SDS011;67776;52.012;4.736;2023-02-28T08:10:31;11.67;;;5.87;;
78489;SDS011;67776;52.012;4.736;2023-02-28T08:12:57;11.85;;;5.00;;
78489;SDS011;67776;52.012;4.736;2023-02-28T08:15:22;10.63;;;4.77;;
78489;SDS011;67776;52.012;4.736;2023-02-28T08:17:47;9.40;;;4.47;;
78489;SDS011;67776;52.012;4.736;2023-02-28T08:20:12;11.73;;;5.10;;
78489;SDS011;67776;52.012;4.736;2023-02-28T08:22:38;10.45;;;4.63;;
78489;SDS011;67776;52.012;4.736;2023-02-28T08:25:03;11.07;;;5.00;;
78489;SDS011;67776;52.012;4.736;2023-02-28T08:27:29;10.43;;;5.10;;
78489;SDS011;67776;52.012;4.736;2023-02-28T08:29:54;14.33;;;5.50;;
78489;SDS011;67776;52.012;4.736;2023-02-28T08:32:20;11.57;;;5.10;;
78489;SDS011;67776;52.012;4.736;2023-02-28T08:34:45;9.57;;;4.93;;
78489;SDS011;67776;52.012;4.736;2023-02-28T08:37:10;11.03;;;5.23;;
78489;SDS011;67776;52.012;4.736;2023-02-28T08:39:38;10.73;;;5.13;;
78489;SDS011;67776;52.012;4.736;2023-02-28T08:42:04;11.38;;;5.15;;
78489;SDS011;67776;52.012;4.736;2023-02-28T08:44:29;11.83;;;5.03;;
78489;SDS011;67776;52.012;4.736;2023-02-28T08:46:55;11.00;;;4.82;;
78489;SDS011;67776;52.012;4.736;2023-02-28T08:49:20;11.10;;;5.30;;
78489;SDS011;67776;52.012;4.736;2023-02-28T08:51:46;10.53;;;5.63;;
78489;SDS011;67776;52.012;4.736;2023-02-28T08:54:11;10.10;;;4.90;;
78489;SDS011;67776;52.012;4.736;2023-02-28T08:56:44;11.77;;;5.28;;
78489;SDS011;67776;52.012;4.736;2023-02-28T08:59:09;11.53;;;5.17;;
78489;SDS011;67776;52.012;4.736;2023-02-28T09:01:35;10.40;;;4.83;;
78489;SDS011;67776;52.012;4.736;2023-02-28T09:04:01;12.03;;;4.97;;
78489;SDS011;67776;52.012;4.736;2023-02-28T09:06:27;10.77;;;5.03;;
78489;SDS011;67776;52.012;4.736;2023-02-28T09:08:55;9.70;;;5.07;;
78489;SDS011;67776;52.012;4.736;2023-02-28T09:11:23;10.73;;;5.13;;
78489;SDS011;67776;52.012;4.736;2023-02-28T09:13:49;10.93;;;4.90;;
78489;SDS011;67776;52.012;4.736;2023-02-28T09:16:15;11.33;;;4.70;;
78489;SDS011;67776;52.012;4.736;2023-02-28T09:18:41;13.27;;;5.35;;
78489;SDS011;67776;52.012;4.736;2023-02-28T09:21:08;11.90;;;4.65;;
78489;SDS011;67776;52.012;4.736;2023-02-28T09:23:38;9.60;;;4.57;;
78489;SDS011;67776;52.012;4.736;2023-02-28T09:26:03;10.03;;;4.83;;
78489;SDS011;67776;52.012;4.736;2023-02-28T09:28:29;10.93;;;5.38;;
78489;SDS011;67776;52.012;4.736;2023-02-28T09:30:55;16.27;;;6.83;;
78489;SDS011;67776;52.012;4.736;2023-02-28T09:33:22;14.07;;;6.38;;
78489;SDS011;67776;52.012;4.736;2023-02-28T09:35:51;13.27;;;6.57;;
78489;SDS011;67776;52.012;4.736;2023-02-28T09:38:23;12.00;;;6.22;;
78489;SDS011;67776;52.012;4.736;2023-02-28T09:40:50;15.73;;;7.50;;
78489;SDS011;67776;52.012;4.736;2023-02-28T09:43:18;15.10;;;6.75;;
78489;SDS011;67776;52.012;4.736;2023-02-28T09:45:51;15.70;;;7.65;;
78489;SDS011;67776;52.012;4.736;2023-02-28T09:48:25;13.65;;;6.53;;
78489;SDS011;67776;52.012;4.736;2023-02-28T09:51:02;11.87;;;5.83;;
78489;SDS011;67776;52.012;4.736;2023-02-28T09:53:39;12.68;;;6.20;;
78489;SDS011;67776;52.012;4.736;2023-02-28T09:56:08;12.73;;;6.73;;
78489;SDS011;67776;52.012;4.736;2023-02-28T09:58:56;13.27;;;6.83;;
78489;SDS011;67776;52.012;4.736;2023-02-28T10:01:43;16.05;;;7.18;;
78489;SDS011;67776;52.012;4.736;2023-02-28T10:04:25;12.95;;;6.03;;
78489;SDS011;67776;52.012;4.736;2023-02-28T10:07:01;10.82;;;5.50;;
78489;SDS011;67776;52.012;4.736;2023-02-28T10:09:30;9.95;;;5.38;;
78489;SDS011;67776;52.012;4.736;2023-02-28T10:12:04;10.27;;;5.23;;
78489;SDS011;67776;52.012;4.736;2023-02-28T10:14:34;10.57;;;5.18;;
78489;SDS011;67776;52.012;4.736;2023-02-28T10:17:43;9.63;;;5.20;;
78489;SDS011;67776;52.012;4.736;2023-02-28T10:19:57;10.15;;;5.57;;
78489;SDS011;67776;52.012;4.736;2023-02-28T10:22:27;9.77;;;5.13;;
78489;SDS011;67776;52.012;4.736;2023-02-28T10:24:59;10.00;;;5.23;;
78489;SDS011;67776;52.012;4.736;2023-02-28T10:27:31;8.68;;;4.50;;
78489;SDS011;67776;52.012;4.736;2023-02-28T10:29:58;8.60;;;4.63;;
78489;SDS011;67776;52.012;4.736;2023-02-28T10:37:23;8.17;;;4.07;;
78489;SDS011;67776;52.012;4.736;2023-02-28T10:39:48;6.80;;;3.37;;
78489;SDS011;67776;52.012;4.736;2023-02-28T10:42:27;7.67;;;3.90;;
78489;SDS011;67776;52.012;4.736;2023-02-28T10:47:49;7.35;;;3.50;;
78489;SDS011;67776;52.012;4.736;2023-02-28T10:51:03;6.63;;;3.30;;
78489;SDS011;67776;52.012;4.736;2023-02-28T10:58:29;7.07;;;3.47;;
78489;SDS011;67776;52.012;4.736;2023-02-28T11:00:56;6.38;;;3.58;;
78489;SDS011;67776;52.012;4.736;2023-02-28T11:03:33;6.55;;;2.70;;
78489;SDS011;67776;52.012;4.736;2023-02-28T11:06:07;5.27;;;2.50;;
78489;SDS011;67776;52.012;4.736;2023-02-28T11:08:43;7.17;;;2.80;;
78489;SDS011;67776;52.012;4.736;2023-02-28T11:11:11;6.35;;;2.80;;
78489;SDS011;67776;52.012;4.736;2023-02-28T11:13:36;5.50;;;2.60;;
78489;SDS011;67776;52.012;4.736;2023-02-28T11:16:04;5.78;;;2.67;;
78489;SDS011;67776;52.012;4.736;2023-02-28T11:18:37;6.95;;;3.10;;
78489;SDS011;67776;52.012;4.736;2023-02-28T11:21:04;6.05;;;2.80;;
78489;SDS011;67776;52.012;4.736;2023-02-28T11:23:30;5.30;;;2.80;;
78489;SDS011;67776;52.012;4.736;2023-02-28T11:26:00;5.60;;;2.80;;
78489;SDS011;67776;52.012;4.736;2023-02-28T11:28:33;8.57;;;3.00;;
78489;SDS011;67776;52.012;4.736;2023-02-28T11:33:54;6.97;;;2.97;;
78489;SDS011;67776;52.012;4.736;2023-02-28T11:36:24;5.72;;;2.80;;
78489;SDS011;67776;52.012;4.736;2023-02-28T11:38:53;6.00;;;3.03;;
78489;SDS011;67776;52.012;4.736;2023-02-28T11:44:30;5.47;;;2.87;;
78489;SDS011;67776;52.012;4.736;2023-02-28T11:46:58;5.90;;;3.25;;
78489;SDS011;67776;52.012;4.736;2023-02-28T11:57:40;5.60;;;3.00;;
78489;SDS011;67776;52.012;4.736;2023-02-28T12:00:22;7.03;;;2.80;;
78489;SDS011;67776;52.012;4.736;2023-02-28T12:05:43;5.75;;;2.50;;
78489;SDS011;67776;52.012;4.736;2023-02-28T12:10:57;5.57;;;2.50;;
78489;SDS011;67776;52.012;4.736;2023-02-28T12:13:41;5.45;;;2.70;;
78489;SDS011;67776;52.012;4.736;2023-02-28T12:27:35;6.80;;;3.10;;
78489;SDS011;67776;52.012;4.736;2023-02-28T12:30:25;6.43;;;2.95;;
78489;SDS011;67776;52.012;4.736;2023-02-28T12:33:04;5.68;;;2.72;;
78489;SDS011;67776;52.012;4.736;2023-02-28T12:35:33;6.25;;;2.97;;
78489;SDS011;67776;52.012;4.736;2023-02-28T12:38:04;5.22;;;2.83;;
78489;SDS011;67776;52.012;4.736;2023-02-28T12:40:41;5.63;;;2.90;;
78489;SDS011;67776;52.012;4.736;2023-02-28T12:43:11;6.85;;;3.13;;
78489;SDS011;67776;52.012;4.736;2023-02-28T12:48:08;6.03;;;3.10;;
78489;SDS011;67776;52.012;4.736;2023-02-28T12:50:38;5.85;;;2.90;;
78489;SDS011;67776;52.012;4.736;2023-02-28T13:11:44;5.20;;;2.83;;
78489;SDS011;67776;52.012;4.736;2023-02-28T13:17:18;5.80;;;3.13;;
78489;SDS011;67776;52.012;4.736;2023-02-28T13:22:22;6.10;;;2.78;;
78489;SDS011;67776;52.012;4.736;2023-02-28T13:26:05;8.32;;;2.80;;
78489;SDS011;67776;52.012;4.736;2023-02-28T13:28:03;6.80;;;3.17;;
78489;SDS011;67776;52.012;4.736;2023-02-28T13:33:29;5.27;;;3.20;;
78489;SDS011;67776;52.012;4.736;2023-02-28T13:38:42;6.18;;;3.13;;
78489;SDS011;67776;52.012;4.736;2023-02-28T13:44:00;5.25;;;3.10;;
78489;SDS011;67776;52.012;4.736;2023-02-28T13:47:23;6.10;;;3.20;;
78489;SDS011;67776;52.012;4.736;2023-02-28T13:51:48;5.10;;;3.10;;
78489;SDS011;67776;52.012;4.736;2023-02-28T14:04:59;5.57;;;3.23;;
78489;SDS011;67776;52.012;4.736;2023-02-28T14:07:28;6.22;;;3.08;;
78489;SDS011;67776;52.012;4.736;2023-02-28T14:09:58;6.47;;;3.20;;
78489;SDS011;67776;52.012;4.736;2023-02-28T14:17:58;5.22;;;2.60;;
78489;SDS011;67776;52.012;4.736;2023-02-28T14:20:27;5.45;;;2.70;;
78489;SDS011;67776;52.012;4.736;2023-02-28T14:23:04;5.97;;;2.63;;
78489;SDS011;67776;52.012;4.736;2023-02-28T14:31:49;5.97;;;2.40;;
78489;SDS011;67776;52.012;4.736;2023-02-28T14:34:39;5.22;;;2.40;;
78489;SDS011;67776;52.012;4.736;2023-02-28T14:37:16;6.07;;;2.60;;
78489;SDS011;67776;52.012;4.736;2023-02-28T14:39:49;5.50;;;2.33;;
78489;SDS011;67776;52.012;4.736;2023-02-28T14:42:34;7.00;;;2.57;;
78489;SDS011;67776;52.012;4.736;2023-02-28T14:45:01;6.05;;;2.60;;
78489;SDS011;67776;52.012;4.736;2023-02-28T14:47:28;5.63;;;2.28;;
78489;SDS011;67776;52.012;4.736;2023-02-28T14:49:56;5.80;;;2.67;;
78489;SDS011;67776;52.012;4.736;2023-02-28T14:52:27;5.88;;;2.50;;
78489;SDS011;67776;52.012;4.736;2023-02-28T14:54:59;5.60;;;2.37;;
78489;SDS011;67776;52.012;4.736;2023-02-28T14:57:34;5.10;;;2.42;;
78489;SDS011;67776;52.012;4.736;2023-02-28T15:02:37;4.95;;;2.35;;
78489;SDS011;67776;52.012;4.736;2023-02-28T15:07:41;5.40;;;2.70;;
78489;SDS011;67776;52.012;4.736;2023-02-28T15:10:21;5.63;;;2.70;;
78489;SDS011;67776;52.012;4.736;2023-02-28T15:12:53;6.38;;;2.53;;
78489;SDS011;67776;52.012;4.736;2023-02-28T15:15:21;7.65;;;2.60;;
78489;SDS011;67776;52.012;4.736;2023-02-28T15:17:50;6.07;;;2.40;;
78489;SDS011;67776;52.012;4.736;2023-02-28T15:20:19;5.13;;;2.50;;
78489;SDS011;67776;52.012;4.736;2023-02-28T15:22:46;5.25;;;2.50;;
78489;SDS011;67776;52.012;4.736;2023-02-28T15:25:17;4.63;;;2.30;;
78489;SDS011;67776;52.012;4.736;2023-02-28T15:27:45;4.90;;;2.30;;
78489;SDS011;67776;52.012;4.736;2023-02-28T15:30:25;5.75;;;2.50;;
78489;SDS011;67776;52.012;4.736;2023-02-28T15:33:07;5.87;;;2.60;;
78489;SDS011;67776;52.012;4.736;2023-02-28T15:35:44;6.40;;;2.90;;
78489;SDS011;67776;52.012;4.736;2023-02-28T15:40:42;5.60;;;2.63;;
78489;SDS011;67776;52.012;4.736;2023-02-28T15:43:25;5.07;;;2.27;;
78489;SDS011;67776;52.012;4.736;2023-02-28T15:46:04;5.35;;;2.55;;
78489;SDS011;67776;52.012;4.736;2023-02-28T15:48:45;5.80;;;2.70;;
78489;SDS011;67776;52.012;4.736;2023-02-28T15:51:22;6.60;;;3.30;;
78489;SDS011;67776;52.012;4.736;2023-02-28T15:53:56;7.45;;;3.78;;
78489;SDS011;67776;52.012;4.736;2023-02-28T15:56:27;6.27;;;3.47;;
78489;SDS011;67776;52.012;4.736;2023-02-28T15:58:57;7.68;;;3.67;;
78489;SDS011;67776;52.012;4.736;2023-02-28T16:01:34;8.60;;;3.90;;
78489;SDS011;67776;52.012;4.736;2023-02-28T16:04:02;7.22;;;3.70;;
78489;SDS011;67776;52.012;4.736;2023-02-28T16:06:41;6.53;;;3.40;;
78489;SDS011;67776;52.012;4.736;2023-02-28T16:09:14;7.57;;;3.50;;
78489;SDS011;67776;52.012;4.736;2023-02-28T16:11:46;7.18;;;3.80;;
78489;SDS011;67776;52.012;4.736;2023-02-28T16:14:15;7.45;;;3.72;;
78489;SDS011;67776;52.012;4.736;2023-02-28T16:16:46;6.43;;;3.00;;
78489;SDS011;67776;52.012;4.736;2023-02-28T16:19:14;6.35;;;3.55;;
78489;SDS011;67776;52.012;4.736;2023-02-28T16:21:39;7.37;;;3.80;;
78489;SDS011;67776;52.012;4.736;2023-02-28T16:24:04;6.27;;;3.60;;
78489;SDS011;67776;52.012;4.736;2023-02-28T16:26:30;6.85;;;3.50;;
78489;SDS011;67776;52.012;4.736;2023-02-28T16:28:59;7.33;;;3.43;;
78489;SDS011;67776;52.012;4.736;2023-02-28T16:31:25;7.10;;;3.85;;
78489;SDS011;67776;52.012;4.736;2023-02-28T16:33:50;6.45;;;3.72;;
78489;SDS011;67776;52.012;4.736;2023-02-28T16:36:17;6.97;;;3.47;;
78489;SDS011;67776;52.012;4.736;2023-02-28T16:38:44;7.35;;;3.50;;
78489;SDS011;67776;52.012;4.736;2023-02-28T16:41:11;6.57;;;3.73;;
78489;SDS011;67776;52.012;4.736;2023-02-28T16:43:42;9.40;;;4.22;;
78489;SDS011;67776;52.012;4.736;2023-02-28T16:46:10;7.35;;;3.83;;
78489;SDS011;67776;52.012;4.736;2023-02-28T16:48:36;7.67;;;3.90;;
78489;SDS011;67776;52.012;4.736;2023-02-28T16:51:02;8.48;;;3.83;;
78489;SDS011;67776;52.012;4.736;2023-02-28T16:53:29;7.95;;;4.15;;
78489;SDS011;67776;52.012;4.736;2023-02-28T16:55:54;7.43;;;3.70;;
78489;SDS011;67776;52.012;4.736;2023-02-28T16:58:20;9.83;;;4.10;;
78489;SDS011;67776;52.012;4.736;2023-02-28T17:00:46;8.13;;;3.90;;
78489;SDS011;67776;52.012;4.736;2023-02-28T17:03:19;7.57;;;3.73;;
78489;SDS011;67776;52.012;4.736;2023-02-28T17:05:47;7.80;;;3.80;;
78489;SDS011;67776;52.012;4.736;2023-02-28T17:08:13;7.20;;;4.17;;
78489;SDS011;67776;52.012;4.736;2023-02-28T17:10:38;7.60;;;4.10;;
78489;SDS011;67776;52.012;4.736;2023-02-28T17:13:03;11.75;;;4.43;;
78489;SDS011;67776;52.012;4.736;2023-02-28T17:15:32;8.23;;;4.37;;
78489;SDS011;67776;52.012;4.736;2023-02-28T17:17:58;9.93;;;4.20;;
78489;SDS011;67776;52.012;4.736;2023-02-28T17:20:23;8.13;;;4.03;;
78489;SDS011;67776;52.012;4.736;2023-02-28T17:22:50;7.07;;;4.10;;
78489;SDS011;67776;52.012;4.736;2023-02-28T17:25:16;8.00;;;3.97;;
78489;SDS011;67776;52.012;4.736;2023-02-28T17:27:41;8.65;;;4.22;;
78489;SDS011;67776;52.012;4.736;2023-02-28T17:30:14;7.90;;;4.30;;
78489;SDS011;67776;52.012;4.736;2023-02-28T17:32:42;8.75;;;4.20;;